.
WxDataArchive / Data Records for 2009-10-05
2009-10-04 October 2009 2009-10-06

Data Records for Monday, 05 October 2009

Time	Temp	Chill	HIndex	Humid	Dewpt	 Wind 	HiWind	WindDir	Rain 	Barom 
-----	----	-----	------	-----	-----	------	------	-------	-----	----- 
00:00	41.2	41.2	41.2	93	39.3	0	0	---	0.00	30.075 
00:05	41.1	41.1	41.1	93	39.2	0	0	---	0.00	30.075 
00:10	41.1	41.1	41.1	93	39.2	0	0	---	0.00	30.075 
00:15	40.9	40.9	40.9	93	39.0	0	0	---	0.00	30.071 
00:20	40.8	40.8	40.8	93	38.9	0	0	---	0.00	30.071 
00:25	40.6	40.6	40.6	93	38.7	0	0	---	0.00	30.071 
00:30	40.6	40.6	40.6	94	39.0	0	0	---	0.00	30.072 
00:35	40.5	40.5	40.5	94	38.9	0	0	---	0.00	30.072 
00:40	40.5	40.5	40.5	94	38.9	0	0	---	0.00	30.072 
00:45	40.3	40.3	40.3	94	38.7	0	0	---	0.00	30.074 
00:50	40.3	40.3	40.3	94	38.7	0	0	---	0.00	30.074 
00:55	40.3	40.3	40.3	94	38.7	0	0	---	0.00	30.074 
01:00	40.3	40.3	40.3	94	38.7	0	0	---	0.00	30.072 
01:05	40.3	40.3	40.3	94	38.7	0	0	---	0.00	30.072 
01:10	40.2	40.2	40.2	94	38.6	0	0	---	0.00	30.072 
01:15	40.2	40.2	40.2	94	38.6	0	0	---	0.00	30.066 
01:20	40.1	40.1	40.1	94	38.5	0	0	---	0.00	30.066 
01:25	40.1	40.1	40.1	94	38.5	0	0	---	0.00	30.066 
01:30	40.1	40.1	40.1	94	38.5	0	0	---	0.00	30.067 
01:35	40.1	40.1	40.1	94	38.5	0	0	---	0.00	30.067 
01:40	40.1	40.1	40.1	94	38.5	0	0	---	0.00	30.067 
01:45	40.1	40.1	40.1	94	38.5	0	0	---	0.00	30.070 
01:50	40.1	40.1	40.1	94	38.5	0	0	---	0.00	30.070 
01:55	39.9	39.9	39.9	95	38.6	0	0	---	0.00	30.070 
02:00	39.9	39.9	39.9	94	38.3	0	0	---	0.00	30.065 
02:05	39.8	39.8	39.8	94	38.2	0	0	---	0.00	30.065 
02:10	39.6	39.6	39.6	94	38.0	0	0	---	0.00	30.065 
02:15	39.6	39.6	39.6	95	38.3	0	0	---	0.00	30.066 
02:20	39.5	39.5	39.5	95	38.2	0	0	---	0.00	30.066 
02:25	39.5	39.5	39.5	95	38.2	0	0	---	0.00	30.066 
02:30	39.3	39.3	39.3	95	38.0	0	0	---	0.00	30.074 
02:35	39.3	39.3	39.3	95	38.0	0	0	---	0.00	30.074 
02:40	39.2	39.2	39.2	95	37.9	0	0	---	0.00	30.074 
02:45	39.1	39.1	39.1	95	37.8	0	0	---	0.00	30.075 
02:50	39.1	39.1	39.1	95	37.8	0	0	---	0.00	30.075 
02:55	39.1	39.1	39.1	95	37.8	0	0	---	0.00	30.075 
03:00	39.1	39.1	39.1	95	37.8	0	0	---	0.00	30.075 
03:05	39.1	39.1	39.1	95	37.8	0	0	---	0.00	30.075 
03:10	38.9	38.9	38.9	95	37.6	0	0	---	0.00	30.075 
03:15	38.8	38.8	38.8	95	37.5	0	0	---	0.00	30.070 
03:20	38.8	38.8	38.8	95	37.5	0	0	---	0.00	30.070 
03:25	38.8	38.8	38.8	95	37.5	0	0	---	0.00	30.070 
03:30	38.8	38.8	38.8	95	37.5	0	0	---	0.00	30.069 
03:35	38.9	38.9	38.9	95	37.6	0	0	---	0.00	30.069 
03:40	38.8	38.8	38.8	95	37.5	0	0	---	0.00	30.069 
03:45	38.8	38.8	38.8	95	37.5	0	0	---	0.00	30.069 
03:50	38.6	38.6	38.6	95	37.3	0	0	---	0.00	30.069 
03:55	38.5	38.5	38.5	95	37.2	0	0	---	0.00	30.069 
04:00	38.5	38.5	38.5	95	37.2	0	0	---	0.00	30.071 
04:05	38.3	38.3	38.3	95	37.0	0	0	---	0.00	30.071 
04:10	38.3	38.3	38.3	95	37.0	0	0	---	0.00	30.071 
04:15	38.2	38.2	38.2	95	36.9	0	0	---	0.00	30.071 
04:20	38.2	38.2	38.2	95	36.9	0	0	---	0.00	30.071 
04:25	38.0	38.0	38.0	95	36.7	0	0	---	0.00	30.071 
04:30	37.9	37.9	37.9	95	36.6	0	0	---	0.00	30.072 
04:35	37.9	37.9	37.9	95	36.6	0	0	---	0.00	30.072 
04:40	37.8	37.8	37.8	95	36.5	0	0	---	0.00	30.072 
04:45	37.8	37.8	37.8	95	36.5	0	0	---	0.00	30.073 
04:50	37.8	37.8	37.8	95	36.5	0	0	---	0.00	30.073 
04:55	37.8	37.8	37.8	95	36.5	0	0	---	0.00	30.073 
05:00	37.6	37.6	37.6	95	36.3	0	0	---	0.00	30.074 
05:05	37.5	37.5	37.5	95	36.2	0	0	---	0.00	30.074 
05:10	37.5	37.5	37.5	95	36.2	0	0	---	0.00	30.074 
05:15	37.3	37.3	37.3	95	36.0	0	0	---	0.00	30.075 
05:20	37.2	37.2	37.2	95	35.9	0	0	---	0.00	30.075 
05:25	37.2	37.2	37.2	95	35.9	0	0	---	0.00	30.075 
05:30	37.2	37.2	37.2	95	35.9	0	0	---	0.00	30.075 
05:35	37.2	37.2	37.2	95	35.9	0	0	---	0.00	30.075 
05:40	37.0	37.0	37.0	95	35.7	0	0	---	0.00	30.075 
05:45	37.0	37.0	37.0	95	35.7	0	0	---	0.00	30.077 
05:50	36.9	36.9	36.9	95	35.6	0	0	---	0.00	30.077 
05:55	36.9	36.9	36.9	95	35.6	0	0	---	0.00	30.077 
06:00	36.8	36.8	36.8	95	35.5	0	0	---	0.00	30.078 
06:05	36.8	36.8	36.8	95	35.5	0	0	---	0.00	30.078 
06:10	36.8	36.8	36.8	95	35.5	0	0	---	0.00	30.078 
06:15	36.8	36.8	36.8	95	35.5	0	0	---	0.00	30.089 
06:20	36.8	36.8	36.8	95	35.5	0	0	---	0.00	30.089 
06:25	36.9	36.9	36.9	95	35.6	0	0	---	0.00	30.089 
06:30	37.0	37.0	37.0	96	36.0	0	0	---	0.00	30.092 
06:35	37.0	37.0	37.0	96	36.0	0	0	---	0.00	30.092 
06:40	37.0	37.0	37.0	96	36.0	0	0	---	0.00	30.092 
06:45	36.9	36.9	36.9	95	35.6	0	0	---	0.00	30.098 
06:50	36.9	36.9	36.9	96	35.9	0	0	---	0.00	30.098 
06:55	36.9	36.9	36.9	96	35.9	0	0	---	0.00	30.098 
07:00	36.9	36.9	36.9	96	35.9	0	0	---	0.00	30.100 
07:05	36.9	36.9	36.9	96	35.9	0	0	---	0.00	30.100 
07:10	36.8	36.8	36.8	95	35.5	0	0	---	0.00	30.100 
07:15	36.6	36.6	36.6	96	35.6	0	0	---	0.00	30.108 
07:20	36.6	36.6	36.6	95	35.3	0	0	---	0.00	30.108 
07:25	36.6	36.6	36.6	96	35.6	0	0	---	0.00	30.108 
07:30	36.5	36.5	36.5	96	35.5	0	0	---	0.00	30.112 
07:35	36.5	36.5	36.5	96	35.5	0	0	---	0.00	30.112 
07:40	36.5	36.5	36.5	96	35.5	0	0	---	0.00	30.112 
07:45	36.3	36.3	36.3	96	35.3	0	0	---	0.00	30.108 
07:50	36.5	36.5	36.5	96	35.5	0	0	---	0.00	30.108 
07:55	36.5	36.5	36.5	96	35.5	0	0	---	0.00	30.108 
08:00	36.5	36.5	36.5	96	35.5	0	0	---	0.00	30.107 
08:05	36.6	36.6	36.6	96	35.6	0	0	---	0.00	30.107 
08:10	36.8	36.8	36.8	96	35.8	0	0	---	0.00	30.107 
08:15	36.9	36.9	36.9	96	35.9	0	0	---	0.00	30.109 
08:20	37.0	37.0	37.0	96	36.0	0	0	---	0.00	30.109 
08:25	37.3	37.3	37.3	96	36.3	0	0	---	0.00	30.109 
08:30	37.6	37.6	37.6	96	36.6	0	0	---	0.00	30.110 
08:35	38.0	38.0	38.0	96	37.0	0	0	---	0.00	30.110 
08:40	38.3	38.3	38.3	96	37.3	0	0	---	0.00	30.110 
08:45	38.6	38.6	38.6	96	37.6	0	0	---	0.00	30.112 
08:50	39.1	39.1	39.1	96	38.1	0	0	---	0.00	30.112 
08:55	39.5	39.5	39.5	96	38.5	0	0	---	0.00	30.112 
09:00	39.9	39.9	39.9	96	38.9	0	0	---	0.00	30.112 
09:05	40.6	40.6	40.6	96	39.5	0	0	---	0.00	30.112 
09:10	41.2	41.2	41.2	97	40.4	0	0	---	0.00	30.112 
09:15	41.9	41.9	41.9	97	41.1	0	0	---	0.00	30.109 
09:20	42.5	42.5	42.5	97	41.7	0	0	---	0.00	30.109 
09:25	43.2	43.2	43.2	97	42.4	0	0	---	0.00	30.109 
09:30	44.2	44.2	44.2	97	43.4	0	0	---	0.00	30.110 
09:35	45.1	45.1	45.1	97	44.3	0	0	---	0.00	30.110 
09:40	45.8	45.8	45.8	97	45.0	0	0	---	0.00	30.110 
09:45	46.5	46.5	46.5	97	45.7	0	1	270	0.00	30.108 
09:50	47.1	47.1	47.1	97	46.3	0	0	---	0.00	30.108 
09:55	48.2	48.2	48.2	97	47.4	0	1	270	0.00	30.108 
10:00	48.8	48.8	48.8	97	48.0	0	1	270	0.00	30.107 
10:05	49.6	49.6	49.6	97	48.8	0	2	270	0.00	30.107 
10:10	50.5	50.5	50.5	97	49.7	0	1	270	0.00	30.107 
10:15	51.1	51.1	51.1	96	50.0	0	2	270	0.00	30.111 
10:20	52.0	52.0	52.0	93	50.0	0	2	270	0.00	30.111 
10:25	52.6	52.6	52.6	89	49.4	0	1	270	0.00	30.111 
10:30	53.2	53.2	53.2	85	48.8	0	1	270	0.00	30.106 
10:35	54.1	54.1	54.1	82	48.7	0	0	---	0.00	30.106 
10:40	54.8	54.8	54.8	77	47.7	0	0	---	0.00	30.106 
10:45	55.6	55.6	55.6	76	48.2	0	0	---	0.00	30.103 
10:50	55.9	55.9	55.9	72	47.0	0	2	270	0.00	30.103 
10:55	56.2	56.2	56.2	71	46.9	1	3	270	0.00	30.103 
11:00	56.5	56.5	56.5	69	46.5	0	3	270	0.00	30.101 
11:05	56.5	56.5	56.5	69	46.5	1	3	270	0.00	30.101 
11:10	56.9	56.9	56.9	68	46.4	1	3	270	0.00	30.101 
11:15	57.0	57.0	57.0	65	45.4	1	3	270	0.00	30.100 
11:20	57.2	57.2	57.2	66	45.9	1	2	270	0.00	30.100 
11:25	57.8	57.8	57.8	66	46.5	1	3	202	0.00	30.100 
11:30	58.4	58.4	58.4	66	47.1	1	3	248	0.00	30.096 
11:35	58.9	58.9	58.9	63	46.3	1	3	248	0.00	30.096 
11:40	59.2	59.2	59.2	62	46.2	0	2	248	0.00	30.096 
11:45	59.3	59.3	59.3	65	47.5	1	3	248	0.00	30.094 
11:50	59.2	59.2	59.2	62	46.2	1	3	292	0.00	30.094 
11:55	59.0	59.0	59.0	61	45.6	0	2	292	0.00	30.094 
12:00	58.9	58.9	58.9	61	45.5	2	5	315	0.00	30.089 
12:05	59.2	59.2	59.2	61	45.8	1	3	270	0.00	30.089 
12:10	59.3	59.3	59.3	61	45.8	1	3	270	0.00	30.089 
12:15	59.6	59.6	59.6	62	46.6	0	2	292	0.00	30.086 
12:20	59.2	59.2	59.2	58	44.4	0	3	292	0.00	30.086 
12:25	58.3	58.3	58.3	60	44.5	0	2	292	0.00	30.086 
12:30	57.6	57.6	57.6	62	44.7	0	1	292	0.00	30.089 
12:35	57.3	57.3	57.3	61	44.0	0	1	292	0.00	30.089 
12:40	57.3	57.3	57.3	61	44.0	0	1	292	0.00	30.089 
12:45	57.6	57.6	57.6	62	44.7	0	1	292	0.00	30.087 
12:50	58.6	58.6	58.6	58	43.9	1	4	292	0.00	30.087 
12:55	58.7	58.7	58.7	57	43.5	1	3	315	0.00	30.087 
13:00	58.9	58.9	58.9	60	45.0	0	1	315	0.00	30.085 
13:05	58.9	58.9	58.9	56	43.2	0	2	315	0.00	30.085 
13:10	58.6	58.6	58.6	59	44.3	0	2	315	0.00	30.085 
13:15	58.7	58.7	58.7	58	44.0	0	1	315	0.00	30.080 
13:20	58.7	58.7	58.7	58	44.0	0	1	315	0.00	30.080 
13:25	59.5	59.5	59.5	58	44.7	1	3	315	0.00	30.080 
13:30	60.5	60.5	60.5	55	44.2	1	4	292	0.00	30.071 
13:35	61.2	61.2	61.2	53	43.9	1	3	248	0.00	30.071 
13:40	61.6	61.6	61.6	52	43.8	1	3	270	0.00	30.071 
13:45	61.3	61.3	61.3	52	43.5	0	2	270	0.00	30.066 
13:50	61.2	61.2	61.2	57	45.8	0	1	22	0.00	30.066 
13:55	61.5	61.5	61.5	54	44.7	0	2	0	0.00	30.066 
14:00	61.5	61.5	61.5	50	42.7	1	3	315	0.00	30.058 
14:05	61.6	61.6	61.6	52	43.8	1	3	315	0.00	30.058 
14:10	61.6	61.6	61.6	50	42.8	1	2	315	0.00	30.058 
14:15	61.6	61.6	61.6	50	42.8	0	2	315	0.00	30.054 
14:20	61.8	61.8	61.8	52	44.0	1	3	315	0.00	30.054 
14:25	62.1	62.1	62.1	55	45.7	0	3	112	0.00	30.054 
14:30	62.0	62.0	62.0	51	43.7	1	2	0	0.00	30.052 
14:35	62.3	62.3	62.3	51	43.9	0	2	338	0.00	30.052 
14:40	62.4	62.4	62.4	51	44.0	0	2	338	0.00	30.052 
14:45	62.1	62.1	62.1	51	43.8	0	1	338	0.00	30.050 
14:50	61.5	61.5	61.5	51	43.2	0	2	338	0.00	30.050 
14:55	60.9	60.9	60.9	52	43.2	1	3	338	0.00	30.050 
15:00	60.4	60.4	60.4	52	42.7	0	2	315	0.00	30.050 
15:05	60.2	60.2	60.2	56	44.4	0	1	315	0.00	30.050 
15:10	60.7	60.7	60.7	54	44.0	1	3	315	0.00	30.050 
15:15	61.3	61.3	61.3	51	43.0	1	4	292	0.00	30.039 
15:20	61.5	61.5	61.5	52	43.7	0	3	292	0.00	30.039 
15:25	61.6	61.6	61.6	52	43.8	1	3	292	0.00	30.039 
15:30	62.0	62.0	62.0	50	43.1	0	2	292	0.00	30.038 
15:35	62.3	62.3	62.3	49	42.9	1	3	292	0.00	30.038 
15:40	62.4	62.4	62.4	49	43.0	1	4	270	0.00	30.038 
15:45	62.6	62.6	62.6	49	43.2	0	2	248	0.00	30.036 
15:50	62.4	62.4	62.4	48	42.4	1	3	292	0.00	30.036 
15:55	62.6	62.6	62.6	51	44.2	0	3	270	0.00	30.036 
16:00	62.4	62.4	62.4	47	41.9	0	3	270	0.00	30.031 
16:05	62.3	62.3	62.3	47	41.8	1	3	315	0.00	30.031 
16:10	62.1	62.1	62.1	48	42.2	0	1	315	0.00	30.031 
16:15	62.1	62.1	62.1	49	42.7	0	2	315	0.00	30.030 
16:20	62.3	62.3	62.3	50	43.4	0	2	315	0.00	30.030 
16:25	62.4	62.4	62.4	49	43.0	0	2	315	0.00	30.030 
16:30	62.3	62.3	62.3	47	41.8	0	2	315	0.00	30.028 
16:35	62.3	62.3	62.3	48	42.4	0	3	315	0.00	30.028 
16:40	62.4	62.4	62.4	48	42.4	0	3	315	0.00	30.028 
16:45	62.3	62.3	62.3	49	42.9	0	2	315	0.00	30.023 
16:50	62.3	62.3	62.3	50	43.4	0	2	315	0.00	30.023 
16:55	62.3	62.3	62.3	48	42.4	0	2	315	0.00	30.023 
17:00	62.3	62.3	62.3	47	41.8	0	2	315	0.00	30.022 
17:05	62.3	62.3	62.3	48	42.4	0	3	315	0.00	30.022 
17:10	62.1	62.1	62.1	47	41.6	0	3	315	0.00	30.022 
17:15	62.0	62.0	62.0	48	42.1	0	1	315	0.00	30.023 
17:20	62.0	62.0	62.0	46	41.0	0	2	315	0.00	30.023 
17:25	62.0	62.0	62.0	48	42.1	0	2	315	0.00	30.023 
17:30	62.0	62.0	62.0	47	41.5	0	1	315	0.00	30.024 
17:35	62.0	62.0	62.0	45	40.4	0	1	315	0.00	30.024 
17:40	61.8	61.8	61.8	47	41.4	0	0	---	0.00	30.024 
17:45	61.6	61.6	61.6	47	41.2	0	1	315	0.00	30.025 
17:50	61.8	61.8	61.8	46	40.8	0	1	315	0.00	30.025 
17:55	61.8	61.8	61.8	47	41.4	0	1	315	0.00	30.025 
18:00	61.8	61.8	61.8	48	41.9	0	1	315	0.00	30.025 
18:05	61.8	61.8	61.8	49	42.4	0	1	315	0.00	30.025 
18:10	61.5	61.5	61.5	50	42.7	0	0	---	0.00	30.025 
18:15	61.3	61.3	61.3	52	43.5	0	0	---	0.00	30.026 
18:20	61.0	61.0	61.0	50	42.2	0	1	315	0.00	30.026 
18:25	60.7	60.7	60.7	51	42.5	0	1	315	0.00	30.026 
18:30	60.5	60.5	60.5	53	43.3	0	0	---	0.00	30.029 
18:35	60.2	60.2	60.2	54	43.5	0	0	---	0.00	30.029 
18:40	59.9	59.9	59.9	55	43.7	0	0	---	0.00	30.029 
18:45	59.6	59.6	59.6	55	43.4	0	0	---	0.00	30.029 
18:50	59.2	59.2	59.2	56	43.5	0	0	---	0.00	30.029 
18:55	58.9	58.9	58.9	57	43.7	0	0	---	0.00	30.029 
19:00	58.4	58.4	58.4	58	43.7	0	0	---	0.00	30.029 
19:05	58.0	58.0	58.0	58	43.3	0	0	---	0.00	30.029 
19:10	57.5	57.5	57.5	59	43.3	0	0	---	0.00	30.029 
19:15	57.0	57.0	57.0	60	43.3	0	0	---	0.00	30.029 
19:20	56.5	56.5	56.5	63	44.1	0	0	---	0.00	30.029 
19:25	55.9	55.9	55.9	64	43.9	0	0	---	0.00	30.029 
19:30	55.3	55.3	55.3	65	43.7	0	0	---	0.00	30.031 
19:35	54.8	54.8	54.8	67	44.1	0	0	---	0.00	30.031 
19:40	54.2	54.2	54.2	68	43.9	0	0	---	0.00	30.031 
19:45	53.8	53.8	53.8	69	43.9	0	0	---	0.00	30.031 
19:50	53.3	53.3	53.3	71	44.1	0	0	---	0.00	30.031 
19:55	52.9	52.9	52.9	72	44.1	0	0	---	0.00	30.031 
20:00	52.6	52.6	52.6	73	44.2	0	0	---	0.00	30.029 
20:05	52.3	52.3	52.3	73	43.9	0	0	---	0.00	30.029 
20:10	52.2	52.2	52.2	74	44.2	0	0	---	0.00	30.029 
20:15	51.9	51.9	51.9	75	44.2	0	0	---	0.00	30.025 
20:20	51.6	51.6	51.6	75	43.9	0	0	---	0.00	30.025 
20:25	51.4	51.4	51.4	76	44.1	0	0	---	0.00	30.025 
20:30	51.1	51.1	51.1	77	44.1	0	0	---	0.00	30.025 
20:35	51.0	51.0	51.0	78	44.4	0	0	---	0.00	30.025 
20:40	50.8	50.8	50.8	79	44.5	0	0	---	0.00	30.025 
20:45	50.7	50.7	50.7	80	44.8	0	0	---	0.00	30.025 
20:50	50.5	50.5	50.5	80	44.6	0	0	---	0.00	30.025 
20:55	50.5	50.5	50.5	81	44.9	0	0	---	0.00	30.025 
21:00	50.5	50.5	50.5	81	44.9	0	0	---	0.00	30.022 
21:05	50.7	50.7	50.7	81	45.1	0	0	---	0.00	30.022 
21:10	50.7	50.7	50.7	81	45.1	0	0	---	0.00	30.022 
21:15	50.5	50.5	50.5	81	44.9	0	0	---	0.00	30.016 
21:20	50.4	50.4	50.4	81	44.8	0	0	---	0.00	30.016 
21:25	50.2	50.2	50.2	81	44.6	0	0	---	0.00	30.016 
21:30	49.9	49.9	49.9	81	44.3	0	0	---	0.00	30.021 
21:35	49.8	49.8	49.8	82	44.5	0	0	---	0.00	30.021 
21:40	49.5	49.5	49.5	82	44.2	0	0	---	0.00	30.021 
21:45	49.2	49.2	49.2	83	44.3	0	0	---	0.00	30.023 
21:50	48.9	48.9	48.9	83	44.0	0	0	---	0.00	30.023 
21:55	48.8	48.8	48.8	84	44.2	0	0	---	0.00	30.023 
22:00	48.5	48.5	48.5	84	43.9	0	0	---	0.00	30.026 
22:05	48.2	48.2	48.2	84	43.6	0	0	---	0.00	30.026 
22:10	47.9	47.9	47.9	85	43.6	0	0	---	0.00	30.026 
22:15	47.6	47.6	47.6	85	43.3	0	0	---	0.00	30.022 
22:20	47.4	47.4	47.4	86	43.4	0	0	---	0.00	30.022 
22:25	47.1	47.1	47.1	86	43.1	0	0	---	0.00	30.022 
22:30	47.0	47.0	47.0	87	43.3	0	0	---	0.00	30.019 
22:35	46.7	46.7	46.7	88	43.3	0	0	---	0.00	30.019 
22:40	46.5	46.5	46.5	88	43.1	0	0	---	0.00	30.019 
22:45	46.2	46.2	46.2	88	42.8	0	0	---	0.00	30.021 
22:50	46.1	46.1	46.1	89	43.0	0	0	---	0.00	30.021 
22:55	46.0	46.0	46.0	89	42.9	0	0	---	0.00	30.021 
23:00	45.7	45.7	45.7	89	42.6	0	0	---	0.00	30.021 
23:05	45.5	45.5	45.5	89	42.4	0	0	---	0.00	30.021 
23:10	45.4	45.4	45.4	90	42.6	0	0	---	0.00	30.021 
23:15	45.2	45.2	45.2	90	42.4	0	0	---	0.00	30.015 
23:20	45.1	45.1	45.1	90	42.3	0	0	---	0.00	30.015 
23:25	44.9	44.9	44.9	91	42.4	0	0	---	0.00	30.015 
23:30	44.8	44.8	44.8	91	42.3	0	0	---	0.00	30.016 
23:35	44.6	44.6	44.6	91	42.1	0	0	---	0.00	30.016 
23:40	44.5	44.5	44.5	91	42.0	0	0	---	0.00	30.016 
23:45	44.5	44.5	44.5	92	42.3	0	0	---	0.00	30.014 
23:50	44.3	44.3	44.3	92	42.1	0	0	---	0.00	30.014 
23:55	44.2	44.2	44.2	92	42.0	0	0	---	0.00	30.014 

CoCoRaHS
IN-AL-39
A2 Web Hosting
Creative Commons License
GoDaddy
search engine by freefind advanced

loaded 2018-11-15 13:49:58 • last modified 2010-11-18 10:43:29
Privacy PolicyDisclaimer
• wx.awcolley.com is powered by PmWiki v.2002016 •
• all content (unless otherwise noted) © 2018 A W Colley